Terminal Aerodrome Forecast
Issued by NWS Sterling, VA

Home | Current Version | Previous Version | Text Only | Print | Product List | Glossary On
Versions: 1 2 3 4 5 6 7 8 9 10 11 12 13 14 15 16 17 18 19 20 21 22 23 24 25 26
182
FTUS41 KLWX 302252 AAB
TAFIAD
TAF AMD
KIAD 302252Z 3023/3124 16012G20KT P6SM -SHRA VCTS BKN035CB
      TEMPO 3023/3024 32020G30KT 1SM TSRA BKN012 OVC040CB
     FM310200 15005KT 5SM BR VCTS OVC040CB
     FM310600 16004KT 3SM BR BKN100
     FM311200 VRB03KT P6SM BKN150=

USA.gov is the U.S. government's official web portal to all federal, state and local government web resources and services.